createdAt,value
2023-02-01T00:01:12.688Z,62.51
2023-02-01T00:03:14.276Z,62.33
2023-02-01T00:05:17.422Z,62.16
2023-02-01T00:07:18.945Z,62.17
2023-02-01T00:09:20.515Z,62.37
2023-02-01T00:11:23.296Z,62.43
2023-02-01T00:13:24.791Z,62.33
2023-02-01T00:15:26.388Z,62.41
2023-02-01T00:17:27.905Z,62.04
2023-02-01T00:19:29.429Z,62.14
2023-02-01T00:21:33.251Z,62.12
2023-02-01T00:23:36.083Z,62.63
2023-02-01T00:25:37.651Z,62.80
2023-02-01T00:27:39.215Z,63.23
2023-02-01T00:29:40.739Z,62.99
2023-02-01T00:31:42.964Z,63.11
2023-02-01T00:33:48.117Z,63.30
2023-02-01T00:35:49.684Z,63.15
2023-02-01T00:37:52.568Z,63.33
2023-02-01T00:40:07.120Z,63.24
2023-02-01T00:42:08.674Z,63.36
2023-02-01T00:44:10.772Z,63.45
2023-02-01T00:46:19.797Z,63.45
2023-02-01T00:48:21.356Z,63.61
2023-02-01T00:50:23.152Z,63.58
2023-02-01T00:52:24.966Z,63.38
2023-02-01T00:54:27.982Z,63.28
2023-02-01T00:56:29.534Z,63.23
2023-02-01T00:58:31.116Z,63.20
2023-02-01T01:00:32.692Z,63.32
2023-02-01T01:02:34.276Z,63.10
2023-02-01T01:04:35.840Z,62.93
2023-02-01T01:06:37.439Z,63.17
2023-02-01T01:08:40.276Z,62.85
2023-02-01T01:10:44.025Z,62.82
2023-02-01T01:12:45.561Z,62.71
2023-02-01T01:14:47.167Z,62.79
2023-02-01T01:16:48.729Z,62.88
2023-02-01T01:18:50.257Z,63.00
2023-02-01T01:20:51.713Z,62.81
2023-02-01T01:22:53.280Z,62.51
2023-02-01T01:24:54.813Z,62.62
2023-02-01T01:26:57.694Z,62.54
2023-02-01T01:29:00.136Z,62.28
2023-02-01T01:31:02.147Z,62.45
2023-02-01T01:33:03.868Z,62.31
2023-02-01T01:35:06.411Z,62.52
2023-02-01T01:37:10.957Z,62.61
2023-02-01T01:39:12.465Z,62.82
2023-02-01T01:41:16.289Z,62.44
2023-02-01T01:43:21.043Z,62.55
2023-02-01T01:45:27.276Z,62.73
2023-02-01T01:47:34.946Z,62.63
2023-02-01T01:49:36.945Z,62.50
2023-02-01T01:51:43.501Z,62.58
2023-02-01T01:53:50.939Z,62.69
2023-02-01T01:55:54.862Z,62.65
2023-02-01T01:58:00.147Z,62.49
2023-02-01T02:00:06.526Z,62.44
2023-02-01T02:02:08.276Z,62.39
2023-02-01T02:04:10.318Z,62.36
2023-02-01T02:06:18.035Z,62.19
2023-02-01T02:08:21.148Z,62.22
2023-02-01T02:10:23.299Z,62.43
2023-02-01T02:12:25.060Z,62.54
2023-02-01T02:14:28.130Z,62.60
2023-02-01T02:29:05.427Z,62.63
2023-02-01T02:31:33.419Z,62.25
2023-02-01T02:33:57.675Z,62.29
2023-02-01T02:36:02.520Z,62.32
2023-02-01T02:38:14.013Z,62.57
2023-02-01T02:40:19.873Z,62.81
2023-02-01T02:42:30.441Z,63.03
2023-02-01T02:44:40.952Z,62.72
2023-02-01T02:46:50.180Z,63.71
2023-02-01T02:49:00.533Z,63.94
2023-02-01T02:51:06.338Z,63.85
2023-02-01T02:53:11.984Z,64.35
2023-02-01T02:55:13.974Z,64.17
2023-02-01T02:57:19.609Z,64.50
2023-02-01T02:59:24.449Z,64.38
2023-02-01T03:01:26.443Z,64.48
2023-02-01T03:03:28.057Z,64.45
2023-02-01T03:05:34.908Z,64.46
2023-02-01T03:08:04.236Z,65.19
2023-02-01T03:10:12.639Z,64.85
2023-02-01T03:12:16.266Z,64.57
2023-02-01T03:14:22.121Z,64.70
2023-02-01T03:16:25.504Z,64.32
2023-02-01T03:18:33.560Z,64.50
2023-02-01T03:20:38.825Z,64.75
2023-02-01T03:22:44.688Z,64.63
2023-02-01T03:24:49.948Z,64.62
2023-02-01T03:27:02.390Z,64.50
2023-02-01T03:29:09.796Z,64.06
2023-02-01T03:31:16.293Z,63.88
2023-02-01T03:33:21.121Z,64.24
2023-02-01T03:35:28.626Z,64.68
2023-02-01T03:37:31.613Z,64.56
2023-02-01T03:39:36.961Z,64.53
2023-02-01T03:41:43.387Z,64.59
2023-02-01T03:43:54.905Z,64.51
2023-02-01T03:46:01.251Z,64.46
2023-02-01T03:48:04.981Z,64.29
2023-02-01T03:50:09.020Z,64.49
2023-02-01T03:52:14.762Z,64.50
2023-02-01T03:54:19.754Z,64.42
2023-02-01T03:56:22.801Z,64.35
2023-02-01T03:58:24.723Z,64.46
2023-02-01T04:00:27.355Z,64.39
2023-02-01T04:02:28.859Z,64.29
2023-02-01T04:06:46.347Z,63.75
2023-02-01T04:08:51.191Z,64.15
2023-02-01T04:10:54.115Z,64.27
2023-02-01T04:12:55.616Z,64.48
2023-02-01T04:14:57.124Z,64.36
2023-02-01T04:16:58.613Z,64.35
2023-02-01T04:19:00.610Z,64.26
2023-02-01T04:21:02.642Z,64.81
2023-02-01T04:23:07.227Z,64.27
2023-02-01T04:25:09.328Z,64.30
2023-02-01T04:27:12.274Z,64.29
2023-02-01T04:29:14.044Z,64.53
2023-02-01T04:31:16.176Z,64.71
2023-02-01T04:33:17.693Z,64.04
2023-02-01T04:35:19.272Z,64.13
2023-02-01T04:37:20.742Z,63.99
2023-02-01T04:39:22.279Z,63.65
2023-02-01T04:41:23.946Z,63.51
2023-02-01T04:43:27.162Z,63.75
2023-02-01T04:45:28.899Z,63.40
2023-02-01T04:47:30.568Z,63.84
2023-02-01T04:49:32.092Z,63.83
2023-02-01T04:51:33.590Z,63.66
2023-02-01T04:53:35.088Z,63.85
2023-02-01T04:55:36.651Z,63.75
2023-02-01T04:57:38.223Z,63.84
2023-02-01T04:59:41.285Z,63.70
2023-02-01T05:01:42.872Z,63.60
2023-02-01T05:03:44.661Z,63.98
2023-02-01T05:05:48.277Z,64.11
2023-02-01T05:07:49.822Z,64.33
2023-02-01T05:09:51.337Z,64.22
2023-02-01T05:11:53.078Z,64.37
2023-02-01T05:13:54.670Z,64.39
2023-02-01T05:15:57.653Z,64.65
2023-02-01T05:17:59.615Z,64.52
2023-02-01T05:20:01.612Z,64.41
2023-02-01T05:22:03.135Z,64.57
2023-02-01T05:24:05.476Z,65.06
2023-02-01T05:26:07.032Z,65.30
2023-02-01T05:28:08.581Z,65.47
2023-02-01T05:30:11.381Z,64.98
2023-02-01T05:32:21.992Z,65.50
2023-02-01T05:34:24.050Z,66.38
2023-02-01T05:36:25.894Z,66.60
2023-02-01T05:38:27.538Z,67.73
2023-02-01T05:40:29.100Z,68.98
2023-02-01T05:42:30.692Z,70.29
2023-02-01T05:44:32.258Z,70.96
2023-02-01T05:46:34.597Z,70.19
2023-02-01T05:48:37.563Z,70.49
2023-02-01T05:50:39.251Z,70.63
2023-02-01T05:52:40.780Z,69.58
2023-02-01T05:54:42.402Z,70.47
2023-02-01T05:56:43.929Z,70.25
2023-02-01T05:58:45.439Z,70.28
2023-02-01T06:00:47.003Z,69.89
2023-02-01T06:02:48.585Z,69.23
2023-02-01T06:04:51.601Z,69.33
2023-02-01T06:06:53.155Z,69.55
2023-02-01T06:08:54.726Z,68.66
2023-02-01T06:10:59.695Z,68.62
2023-02-01T06:13:01.328Z,68.59
2023-02-01T06:15:02.932Z,68.77
2023-02-01T06:17:04.602Z,67.76
2023-02-01T06:19:06.184Z,67.62
2023-02-01T06:21:09.683Z,67.44
2023-02-01T06:23:11.230Z,67.72
2023-02-01T06:25:12.884Z,67.12
2023-02-01T06:27:14.382Z,67.13
2023-02-01T06:29:15.967Z,67.09
2023-02-01T06:31:17.590Z,66.67
2023-02-01T06:33:19.172Z,65.91
2023-02-01T06:35:20.741Z,65.83
2023-02-01T06:37:23.992Z,66.27
2023-02-01T06:39:25.549Z,66.16
2023-02-01T06:41:29.305Z,65.92
2023-02-01T06:43:31.591Z,65.40
2023-02-01T06:45:33.215Z,65.57
2023-02-01T06:47:34.870Z,65.66
2023-02-01T06:49:36.507Z,65.50
2023-02-01T06:51:37.995Z,65.72
2023-02-01T06:53:40.893Z,65.53
2023-02-01T06:55:42.569Z,65.35
2023-02-01T06:57:44.107Z,66.12
2023-02-01T06:59:45.641Z,65.58
2023-02-01T07:01:47.251Z,65.53
2023-02-01T07:03:52.263Z,65.98
2023-02-01T07:05:59.253Z,65.81
2023-02-01T07:08:12.799Z,65.46
2023-02-01T07:10:18.552Z,65.58
2023-02-01T07:12:25.440Z,65.22
2023-02-01T07:14:26.976Z,65.29
2023-02-01T07:16:28.653Z,65.33
2023-02-01T07:18:31.298Z,65.04
2023-02-01T07:20:32.918Z,64.96
2023-02-01T07:22:34.454Z,64.79
2023-02-01T07:24:36.032Z,64.70
2023-02-01T07:26:39.032Z,65.14
2023-02-01T07:28:41.214Z,64.53
2023-02-01T07:30:42.799Z,64.75
2023-02-01T07:32:44.561Z,64.87
2023-02-01T07:34:46.306Z,64.69
2023-02-01T07:36:47.834Z,64.24
2023-02-01T07:38:49.489Z,64.24
2023-02-01T07:40:51.200Z,64.32
2023-02-01T07:42:54.100Z,64.35
2023-02-01T07:44:55.630Z,64.11
2023-02-01T07:46:57.203Z,63.74
2023-02-01T07:49:05.815Z,63.65
2023-02-01T07:51:10.753Z,63.51
2023-02-01T07:53:12.401Z,63.08
2023-02-01T07:55:14.138Z,63.14
2023-02-01T07:57:15.692Z,62.83
2023-02-01T07:59:18.634Z,62.43
2023-02-01T08:01:22.987Z,62.38
2023-02-01T08:03:24.569Z,62.59
2023-02-01T08:05:26.177Z,62.88
2023-02-01T08:07:27.663Z,62.62
2023-02-01T08:09:29.290Z,62.56
2023-02-01T08:11:31.211Z,62.65
2023-02-01T08:13:34.522Z,62.53
2023-02-01T08:15:37.495Z,61.88
2023-02-01T08:17:38.985Z,61.94
2023-02-01T08:19:40.505Z,61.75
2023-02-01T08:21:42.340Z,62.00
2023-02-01T08:23:44.438Z,61.65
2023-02-01T08:25:46.074Z,61.56
2023-02-01T08:27:47.681Z,62.12
2023-02-01T08:29:49.478Z,61.58
2023-02-01T08:31:52.369Z,61.66
2023-02-01T08:33:55.945Z,61.29
2023-02-01T08:35:57.451Z,61.11
2023-02-01T08:37:58.920Z,60.65
2023-02-01T08:40:00.541Z,61.12
2023-02-01T08:42:02.084Z,60.89
2023-02-01T08:44:03.947Z,61.29
2023-02-01T08:46:06.110Z,60.82
2023-02-01T08:48:09.142Z,61.41
2023-02-01T08:50:11.449Z,61.49
2023-02-01T08:52:15.983Z,61.84
2023-02-01T08:54:17.829Z,61.86
2023-02-01T08:56:20.240Z,61.42
2023-02-01T08:58:21.869Z,61.87
2023-02-01T09:00:23.712Z,62.17
2023-02-01T09:02:25.651Z,62.27
2023-02-01T09:04:28.630Z,62.25
2023-02-01T09:06:30.175Z,62.33
2023-02-01T09:08:32.129Z,61.71
2023-02-01T09:10:35.511Z,62.16
2023-02-01T09:12:37.250Z,61.74
2023-02-01T09:14:38.842Z,61.53
2023-02-01T09:16:40.455Z,61.57
2023-02-01T09:18:50.880Z,61.23
2023-02-01T09:21:06.947Z,62.00
2023-02-01T09:23:08.611Z,61.57
2023-02-01T09:25:10.191Z,61.29
2023-02-01T09:27:11.823Z,61.20
2023-02-01T09:29:13.419Z,61.33
2023-02-01T09:31:15.089Z,60.90
2023-02-01T09:33:16.847Z,60.20
2023-02-01T09:35:18.422Z,60.91
2023-02-01T09:37:21.780Z,60.12
2023-02-01T09:39:23.459Z,60.19
2023-02-01T09:41:36.421Z,60.22
2023-02-01T09:43:49.529Z,60.40
2023-02-01T09:46:03.357Z,60.30
2023-02-01T09:48:13.954Z,60.46
2023-02-01T09:50:17.955Z,59.69
2023-02-01T09:52:28.600Z,58.75
2023-02-01T09:54:41.644Z,59.58
2023-02-01T09:56:47.479Z,59.44
2023-02-01T09:58:56.039Z,59.41
2023-02-01T10:01:00.687Z,59.13
2023-02-01T10:03:02.261Z,58.75
2023-02-01T10:05:04.507Z,59.43
2023-02-01T10:07:26.707Z,59.85
2023-02-01T10:09:45.310Z,58.82
2023-02-01T10:12:00.529Z,57.87
2023-02-01T10:14:08.246Z,57.57
2023-02-01T10:16:29.542Z,57.33
2023-02-01T10:18:45.848Z,57.49
2023-02-01T10:20:58.498Z,57.59
2023-02-01T10:23:32.840Z,58.00
2023-02-01T10:25:41.563Z,57.82
2023-02-01T10:27:43.216Z,56.96
2023-02-01T10:29:46.825Z,55.88
2023-02-01T10:31:48.599Z,55.53
2023-02-01T10:33:53.808Z,55.57
2023-02-01T10:36:02.531Z,55.16
2023-02-01T10:38:13.281Z,54.81
2023-02-01T10:40:18.581Z,54.71
2023-02-01T10:42:22.520Z,55.35
2023-02-01T10:44:27.103Z,55.62
2023-02-01T10:46:28.758Z,55.22
2023-02-01T10:48:31.234Z,54.30
2023-02-01T10:50:37.709Z,55.22
2023-02-01T10:52:44.499Z,54.49
2023-02-01T10:54:47.501Z,54.50
2023-02-01T10:56:50.694Z,54.55
2023-02-01T10:59:00.365Z,53.85
2023-02-01T11:01:04.205Z,54.58
2023-02-01T11:03:22.098Z,54.14
2023-02-01T11:05:25.100Z,53.40
2023-02-01T11:07:27.150Z,53.81
2023-02-01T11:09:28.796Z,54.23
2023-02-01T11:11:31.760Z,54.41
2023-02-01T11:13:38.034Z,54.30
2023-02-01T11:15:44.374Z,54.14
2023-02-01T11:17:48.553Z,54.77
2023-02-01T11:19:58.286Z,53.49
2023-02-01T11:22:01.233Z,53.21
2023-02-01T11:24:05.372Z,53.42
2023-02-01T11:26:12.237Z,53.24
2023-02-01T11:28:16.647Z,53.39
2023-02-01T11:30:23.976Z,53.03
2023-02-01T11:32:25.982Z,53.82
2023-02-01T11:34:32.735Z,53.02
2023-02-01T11:36:37.579Z,53.15
2023-02-01T11:38:39.201Z,52.90
2023-02-01T11:40:40.753Z,53.20
2023-02-01T11:42:55.101Z,52.74
2023-02-01T11:45:19.956Z,52.61
2023-02-01T11:47:24.544Z,52.65
2023-02-01T11:49:28.170Z,53.40
2023-02-01T11:51:52.097Z,52.35
2023-02-01T11:54:12.689Z,51.80
2023-02-01T11:56:26.167Z,51.47
2023-02-01T11:58:57.906Z,51.54
2023-02-01T12:01:27.211Z,52.98
2023-02-01T12:03:51.585Z,53.10
2023-02-01T12:06:00.303Z,53.25
2023-02-01T12:08:17.226Z,53.06
2023-02-01T12:10:36.413Z,53.91
2023-02-01T12:12:49.434Z,54.59
2023-02-01T12:15:29.806Z,53.46
2023-02-01T12:17:51.745Z,53.25
2023-02-01T12:20:09.939Z,54.11
2023-02-01T12:22:32.109Z,53.52
2023-02-01T12:24:57.018Z,53.13
2023-02-01T12:27:11.529Z,53.58
2023-02-01T12:29:27.058Z,53.66
2023-02-01T12:32:00.678Z,53.29
2023-02-01T12:34:21.594Z,53.00
2023-02-01T12:36:32.945Z,52.77
2023-02-01T12:38:50.410Z,52.61
2023-02-01T12:41:05.655Z,52.32
2023-02-01T12:43:12.329Z,52.52
2023-02-01T12:45:19.531Z,52.46
2023-02-01T12:47:25.607Z,52.67
2023-02-01T12:49:42.607Z,53.01
2023-02-01T12:51:47.379Z,52.34
2023-02-01T12:53:54.933Z,53.40
2023-02-01T12:56:00.012Z,53.04
2023-02-01T12:58:11.032Z,53.22
2023-02-01T13:00:23.466Z,53.63
2023-02-01T13:02:36.495Z,53.76
2023-02-01T13:04:50.204Z,53.23
2023-02-01T13:06:55.041Z,52.64
2023-02-01T13:09:05.553Z,53.34
2023-02-01T13:11:13.094Z,54.45
2023-02-01T13:13:19.963Z,54.67
2023-02-01T13:15:26.634Z,54.43
2023-02-01T13:17:31.389Z,54.54
2023-02-01T13:19:45.133Z,52.27
2023-02-01T13:21:51.103Z,52.68
2023-02-01T13:23:54.087Z,52.68
2023-02-01T13:25:56.280Z,52.29
2023-02-01T13:28:05.432Z,52.59
2023-02-01T13:30:14.685Z,52.37
2023-02-01T13:33:51.097Z,51.93
2023-02-01T13:35:36.467Z,52.25
2023-02-01T13:38:02.379Z,51.30
2023-02-01T13:40:23.136Z,51.74
2023-02-01T13:42:28.634Z,52.08
2023-02-01T13:44:33.612Z,51.76
2023-02-01T13:46:42.301Z,52.35
2023-02-01T13:48:50.545Z,51.86
2023-02-01T13:50:57.213Z,51.79
2023-02-01T13:53:00.933Z,51.08
2023-02-01T13:55:15.431Z,52.21
2023-02-01T13:57:36.514Z,50.79
2023-02-01T14:00:06.463Z,51.50
2023-02-01T14:02:52.729Z,51.37
2023-02-01T14:04:54.269Z,51.65
2023-02-01T14:06:59.028Z,51.58
2023-02-01T14:09:15.264Z,51.17
2023-02-01T14:11:41.400Z,50.87
2023-02-01T14:13:43.131Z,51.56
2023-02-01T14:16:16.046Z,49.71
2023-02-01T14:18:50.424Z,49.71
2023-02-01T14:21:22.173Z,50.34
2023-02-01T14:23:28.254Z,50.46
2023-02-01T14:25:34.313Z,50.68
2023-02-01T14:27:37.291Z,51.04
2023-02-01T14:29:41.120Z,50.70
2023-02-01T14:31:53.802Z,50.79
2023-02-01T14:33:59.691Z,51.18
2023-02-01T14:36:08.852Z,50.62
2023-02-01T14:38:11.726Z,51.67
2023-02-01T14:40:20.680Z,51.02
2023-02-01T14:42:27.175Z,51.51
2023-02-01T14:44:31.832Z,50.04
2023-02-01T14:47:18.354Z,50.07
2023-02-01T14:49:21.445Z,49.82
2023-02-01T14:51:25.362Z,49.75
2023-02-01T14:53:33.951Z,49.85
2023-02-01T14:55:41.089Z,50.34
2023-02-01T14:57:45.175Z,50.12
2023-02-01T14:59:47.025Z,49.75
2023-02-01T15:01:51.873Z,50.23
2023-02-01T15:04:01.945Z,49.94
2023-02-01T15:06:05.417Z,49.77
2023-02-01T15:08:17.447Z,49.71
2023-02-01T15:10:21.482Z,49.55
2023-02-01T15:12:26.021Z,49.76
2023-02-01T15:14:28.926Z,49.27
2023-02-01T15:16:30.517Z,48.92
2023-02-01T15:18:32.883Z,49.87
2023-02-01T15:20:34.455Z,49.60
2023-02-01T15:22:38.269Z,49.10
2023-02-01T15:24:39.876Z,48.81
2023-02-01T15:26:41.765Z,48.95
2023-02-01T15:28:43.410Z,48.67
2023-02-01T15:30:55.006Z,48.26
2023-02-01T15:33:06.760Z,48.69
2023-02-01T15:35:32.805Z,48.51
2023-02-01T15:37:34.361Z,48.13
2023-02-01T15:39:37.278Z,48.64
2023-02-01T15:41:39.748Z,49.19
2023-02-01T15:43:44.056Z,48.93
2023-02-01T15:45:45.692Z,48.54
2023-02-01T15:47:49.390Z,48.83
2023-02-01T15:49:53.441Z,48.98
2023-02-01T15:51:58.475Z,49.27
2023-02-01T15:54:03.190Z,49.19
2023-02-01T15:56:06.575Z,49.14
2023-02-01T15:58:08.945Z,49.07
2023-02-01T16:00:23.349Z,48.88
2023-02-01T16:02:33.916Z,49.70
2023-02-01T16:04:47.876Z,49.23
2023-02-01T16:06:52.366Z,49.44
2023-02-01T16:09:00.761Z,49.52
2023-02-01T16:11:24.419Z,48.87
2023-02-01T16:13:26.036Z,48.97
2023-02-01T16:15:27.820Z,49.02
2023-02-01T16:17:29.407Z,49.54
2023-02-01T16:19:30.906Z,49.37
2023-02-01T16:21:32.489Z,49.21
2023-02-01T16:23:34.038Z,49.30
2023-02-01T16:25:35.839Z,49.39
2023-02-01T16:27:38.763Z,48.97
2023-02-01T16:29:42.127Z,49.37
2023-02-01T16:31:44.588Z,49.73
2023-02-01T16:33:47.989Z,50.21
2023-02-01T16:35:50.794Z,49.91
2023-02-01T16:37:52.411Z,50.00
2023-02-01T16:39:54.015Z,50.18
2023-02-01T16:41:55.588Z,49.76
2023-02-01T16:43:58.526Z,50.03
2023-02-01T16:46:02.080Z,49.53
2023-02-01T16:48:05.498Z,49.93
2023-02-01T16:50:22.793Z,49.81
2023-02-01T16:52:27.182Z,49.58
2023-02-01T16:54:28.774Z,50.00
2023-02-01T16:56:32.548Z,49.79
2023-02-01T16:58:34.160Z,50.26
2023-02-01T17:00:37.290Z,49.83
2023-02-01T17:02:41.183Z,49.42
2023-02-01T17:04:43.473Z,49.67
2023-02-01T17:06:45.125Z,49.89
2023-02-01T17:08:50.855Z,49.95
2023-02-01T17:10:52.436Z,50.07
2023-02-01T17:12:54.021Z,50.57
2023-02-01T17:14:55.888Z,50.01
2023-02-01T17:17:01.944Z,50.08
2023-02-01T17:19:07.321Z,50.13
2023-02-01T17:21:11.162Z,50.14
2023-02-01T17:23:13.068Z,50.26
2023-02-01T17:25:16.648Z,50.52
2023-02-01T17:27:19.029Z,50.32
2023-02-01T17:29:20.763Z,49.99
2023-02-01T17:31:22.552Z,49.88
2023-02-01T17:33:35.758Z,49.85
2023-02-01T17:35:38.234Z,50.13
2023-02-01T17:37:40.169Z,50.05
2023-02-01T17:39:41.692Z,49.56
2023-02-01T17:41:46.084Z,50.22
2023-02-01T17:43:48.707Z,49.82
2023-02-01T17:45:53.049Z,49.96
2023-02-01T17:47:54.706Z,50.55
2023-02-01T17:49:57.868Z,50.37
2023-02-01T17:51:59.401Z,50.11
2023-02-01T17:54:01.187Z,50.19
2023-02-01T17:56:03.006Z,50.41
2023-02-01T17:58:04.536Z,49.86
2023-02-01T18:00:07.628Z,50.16
2023-02-01T18:02:18.430Z,49.94
2023-02-01T18:04:20.048Z,50.19
2023-02-01T18:06:24.811Z,50.69
2023-02-01T18:08:27.975Z,50.65
2023-02-01T18:10:29.808Z,50.69
2023-02-01T18:12:34.237Z,50.59
2023-02-01T18:14:36.599Z,50.35
2023-02-01T18:16:38.243Z,50.63
2023-02-01T18:18:42.966Z,50.74
2023-02-01T18:20:46.020Z,50.65
2023-02-01T18:22:49.572Z,50.65
2023-02-01T18:24:51.501Z,50.23
2023-02-01T18:26:53.179Z,50.49
2023-02-01T18:28:55.023Z,50.46
2023-02-01T18:30:56.830Z,50.43
2023-02-01T18:32:58.629Z,50.41
2023-02-01T18:35:01.493Z,50.30
2023-02-01T18:37:03.256Z,50.54
2023-02-01T18:39:06.271Z,50.28
2023-02-01T18:41:11.831Z,50.12
2023-02-01T18:43:14.022Z,50.02
2023-02-01T18:45:30.756Z,50.16
2023-02-01T18:47:35.687Z,50.37
2023-02-01T18:49:37.935Z,50.04
2023-02-01T18:51:39.837Z,50.79
2023-02-01T18:53:41.409Z,50.00
2023-02-01T18:55:44.337Z,50.07
2023-02-01T18:57:48.391Z,50.50
2023-02-01T18:59:50.030Z,50.42
2023-02-01T19:01:51.768Z,50.13
2023-02-01T19:04:09.976Z,50.60
2023-02-01T19:06:15.217Z,50.42
2023-02-01T19:08:16.828Z,50.75
2023-02-01T19:10:20.260Z,50.60
2023-02-01T19:12:25.715Z,50.69
2023-02-01T19:14:27.257Z,51.10
2023-02-01T19:16:28.819Z,50.64
2023-02-01T19:18:30.518Z,50.60
2023-02-01T19:20:32.501Z,50.58
2023-02-01T19:22:34.095Z,50.65
2023-02-01T19:24:35.688Z,51.08
2023-02-01T19:26:37.356Z,51.23
2023-02-01T19:28:40.603Z,51.06
2023-02-01T19:30:42.698Z,51.38
2023-02-01T19:32:44.340Z,50.98
2023-02-01T19:34:45.985Z,51.29
2023-02-01T19:36:47.534Z,50.92
2023-02-01T19:38:49.121Z,51.39
2023-02-01T19:40:54.126Z,51.43
2023-02-01T19:42:55.737Z,51.52
2023-02-01T19:44:58.694Z,51.67
2023-02-01T19:47:00.916Z,51.56
2023-02-01T19:49:02.550Z,52.05
2023-02-01T19:51:04.682Z,51.55
2023-02-01T19:53:06.309Z,52.03
2023-02-01T19:55:08.337Z,52.02
2023-02-01T19:57:10.102Z,52.15
2023-02-01T19:59:12.571Z,52.03
2023-02-01T20:01:14.712Z,51.97
2023-02-01T20:03:16.276Z,52.04
2023-02-01T20:05:17.845Z,52.15
2023-02-01T20:07:19.382Z,52.07
2023-02-01T20:09:22.498Z,51.86
2023-02-01T20:11:25.147Z,52.10
2023-02-01T20:13:26.743Z,52.16
2023-02-01T20:15:28.543Z,52.22
2023-02-01T20:17:31.487Z,52.21
2023-02-01T20:19:33.881Z,51.94
2023-02-01T20:21:36.386Z,52.00
2023-02-01T20:23:38.308Z,52.28
2023-02-01T20:25:40.732Z,52.20
2023-02-01T20:27:42.325Z,51.89
2023-02-01T20:29:43.956Z,51.52
2023-02-01T20:31:46.335Z,52.15
2023-02-01T20:33:49.320Z,52.43
2023-02-01T20:35:50.911Z,51.74
2023-02-01T20:37:52.500Z,51.68
2023-02-01T20:39:55.679Z,51.88
2023-02-01T20:41:57.277Z,51.98
2023-02-01T20:43:58.851Z,52.10
2023-02-01T20:46:01.222Z,51.94
2023-02-01T20:48:02.948Z,52.00
2023-02-01T20:50:07.179Z,51.64
2023-02-01T20:52:08.773Z,51.47
2023-02-01T20:54:10.377Z,51.56
2023-02-01T20:56:13.083Z,51.66
2023-02-01T20:58:14.808Z,51.54
2023-02-01T21:00:17.011Z,51.13
2023-02-01T21:02:18.581Z,51.51
2023-02-01T21:04:24.904Z,51.37
2023-02-01T21:06:36.970Z,51.63
2023-02-01T21:08:38.999Z,52.00
2023-02-01T21:10:40.945Z,51.89
2023-02-01T21:12:42.548Z,52.05
2023-02-01T21:14:44.218Z,51.93
2023-02-01T21:16:45.895Z,51.66
2023-02-01T21:18:50.258Z,51.83
2023-02-01T21:20:52.074Z,51.87
2023-02-01T21:22:55.584Z,51.92
2023-02-01T21:24:57.183Z,51.81
2023-02-01T21:26:58.766Z,51.87
2023-02-01T21:29:00.311Z,52.28
2023-02-01T21:31:01.894Z,51.79
2023-02-01T21:33:04.039Z,52.32
2023-02-01T21:35:06.634Z,51.96
2023-02-01T21:37:08.695Z,52.03
2023-02-01T21:39:11.995Z,51.73
2023-02-01T21:41:13.684Z,52.01
2023-02-01T21:43:15.272Z,51.86
2023-02-01T21:45:19.891Z,52.37
2023-02-01T21:47:24.168Z,51.87
2023-02-01T21:49:27.594Z,51.96
2023-02-01T21:51:29.592Z,52.23
2023-02-01T21:53:31.146Z,52.27
2023-02-01T21:55:34.252Z,52.37
2023-02-01T21:57:35.868Z,51.98
2023-02-01T21:59:37.577Z,52.25
2023-02-01T22:01:40.315Z,52.55
2023-02-01T22:03:41.913Z,52.60
2023-02-01T22:05:43.451Z,52.36
2023-02-01T22:07:45.055Z,52.40
2023-02-01T22:09:46.649Z,52.73
2023-02-01T22:11:50.752Z,52.69
2023-02-01T22:13:52.494Z,52.67
2023-02-01T22:15:55.942Z,52.96
2023-02-01T22:17:57.431Z,52.80
2023-02-01T22:19:59.060Z,52.92
2023-02-01T22:22:03.117Z,53.06
2023-02-01T22:24:05.731Z,53.06
2023-02-01T22:26:09.600Z,52.90
2023-02-01T22:28:31.663Z,52.84
2023-02-01T22:30:34.248Z,53.07
2023-02-01T22:32:35.994Z,53.10
2023-02-01T22:34:37.540Z,53.11
2023-02-01T22:36:39.352Z,53.54
2023-02-01T22:38:40.920Z,53.60
2023-02-01T22:40:42.613Z,53.31
2023-02-01T22:42:46.679Z,53.58
2023-02-01T22:44:49.981Z,53.77
2023-02-01T22:46:51.490Z,54.16
2023-02-01T22:48:53.074Z,54.55
2023-02-01T22:50:56.951Z,54.05
2023-02-01T22:52:58.423Z,54.14
2023-02-01T22:54:59.977Z,53.79
2023-02-01T22:57:01.568Z,54.16
2023-02-01T22:59:05.422Z,54.21
2023-02-01T23:01:23.259Z,54.25
2023-02-01T23:03:24.954Z,54.28
2023-02-01T23:05:26.566Z,54.19
2023-02-01T23:07:28.143Z,54.53
2023-02-01T23:09:29.818Z,54.25
2023-02-01T23:11:31.580Z,54.50
2023-02-01T23:13:33.668Z,54.11
2023-02-01T23:15:38.487Z,54.21
2023-02-01T23:17:42.867Z,54.34
2023-02-01T23:19:44.351Z,54.41
2023-02-01T23:21:46.014Z,54.42
2023-02-01T23:23:48.194Z,54.53
2023-02-01T23:25:50.816Z,54.64
2023-02-01T23:27:52.620Z,54.27
2023-02-01T23:29:54.126Z,54.25
2023-02-01T23:31:55.776Z,54.71
2023-02-01T23:33:59.689Z,54.51
2023-02-01T23:36:03.319Z,54.47
2023-02-01T23:38:04.936Z,54.57
2023-02-01T23:40:13.388Z,54.47
2023-02-01T23:42:14.958Z,54.51
2023-02-01T23:44:16.530Z,54.76
2023-02-01T23:46:19.040Z,54.66
2023-02-01T23:48:20.579Z,54.92
2023-02-01T23:50:23.432Z,55.01
2023-02-01T23:52:24.923Z,55.23
2023-02-01T23:54:26.493Z,55.11
2023-02-01T23:56:29.794Z,55.16
2023-02-01T23:58:31.384Z,55.07
